• Join FlightAware (Why Join?)
  • Login
  • US Flag 
06:53AM EDT


 

Airport Tracker/Info


-or-


 

Live Flight TrackerFlight Track Log ✈ N716SM ✈ 26-Jan-2014 ✈ KPVD - KLOM

Flight Track Log - Related Links

Times and Time Zones

All times are in EST time to prevent confusion due to time zone crossing. See the N716SM flight status page for this flight to view local times or setup timezone preferences in your user account.

Time Position Orientation Groundspeed Altitude Reporting Facility
EST Latitude Longitude Course Direction KTS MPH feet Rate Location/Type
10:43AM 41.7000 -71.4517 221° Southwest 124 143 2,200  Level Boston Center
10:43AM 41.6986 -71.4547 239° Southwest 136 157 2,400 2,820 Climbing Boston Center
10:44AM 41.6831 -71.5094 249° West 152 175 5,400 2,940 Climbing Boston Center
10:45AM 41.6700 -71.5528 248° West 140 161 8,100 2,340 Climbing Boston Center
10:46AM 41.6439 -71.6000 234° Southwest 156 180 10,000 1,200 Climbing Boston Center
10:47AM 41.6161 -71.6594 238° Southwest 191 220 10,500 240 Climbing Boston Center
10:48AM 41.3341 -71.2891 166° South  Level FlightAware Approximate
10:48AM 41.5894 -71.7311 244° Southwest 210 242 10,500  Level Boston Center
10:49AM 41.5614 -71.8047 243° Southwest 220 253 10,500  Level Boston Center
10:50AM 41.5311 -71.8856 243° Southwest 224 258 10,500  Level Boston Center
10:51AM 41.5031 -71.9600 243° Southwest 224 258 10,500  Level Boston Center
10:52AM 41.4761 -72.0336 244° Southwest 224 258 10,500  Level Boston Center
10:53AM 41.4469 -72.1078 242° Southwest 224 258 10,500  Level Boston Center
10:54AM 41.4128 -72.1817 238° Southwest 232 267 10,500  Level Boston Center
10:55AM 41.3794 -72.2547 239° Southwest 232 267 10,500  Level Boston Center
10:56AM 41.3514 -72.3308 244° Southwest 230 265 10,500  Level Boston Center
10:57AM 41.3231 -72.4139 246° West 228 262 10,500  Level Boston Center
10:58AM 41.2964 -72.4900 245° Southwest 228 262 10,500  Level Boston Center
10:59AM 41.2694 -72.5611 243° Southwest 228 262 10,600  Climbing Boston Center
11:00AM 41.2414 -72.6258 240° Southwest 227 261 10,600  Level Boston Center
11:01AM 41.2008 -72.7133 238° Southwest 228 262 10,600  Level Boston Center
11:02AM 41.1692 -72.7878 241° Southwest 230 265 10,600  Level Boston Center
11:03AM 41.1403 -72.8642 243° Southwest 232 267 10,600  Level Boston Center
11:04AM 41.1167 -72.9000 229° Southwest 227 261 10,600  Level New York TRACON
11:05AM 41.1000 -72.9833 255° West 220 253 10,600  Level New York TRACON
11:06AM 41.0667 -73.0500 236° Southwest 216 249 10,600  Level New York TRACON
11:07AM 41.0500 -73.1167 252° West 221 254 10,600  Level New York TRACON
11:08AM 41.0167 -73.2000 242° Southwest 225 259 10,600  Level New York TRACON
11:09AM 40.9833 -73.2667 236° Southwest 230 265 10,600  Level New York TRACON
11:10AM 40.9500 -73.3333 237° Southwest 234 269 10,600  Level New York TRACON
11:11AM 40.9167 -73.4000 237° Southwest 227 261 10,600 -60 Level New York TRACON
11:12AM 40.9000 -73.4667 252° West 220 253 10,500  Descending New York TRACON
11:13AM 40.8667 -73.5500 242° Southwest 216 249 10,600  Climbing New York TRACON
11:14AM 40.8333 -73.6167 237° Southwest 216 249 10,600  Level New York TRACON
11:14AM 40.8167 -73.6833 252° West 216 249 10,600  Level New York TRACON
11:15AM 40.7833 -73.7500 237° Southwest 215 247 10,600  Level New York TRACON
11:16AM 40.7500 -73.8167 237° Southwest 219 252 10,600  Level New York TRACON
11:17AM 40.7333 -73.8833 252° West 217 250 10,600  Level New York TRACON
11:18AM 40.7000 -73.9500 237° Southwest 221 254 10,600  Level New York TRACON
11:19AM 40.6667 -74.0167 237° Southwest 223 257 10,600  Level New York TRACON
11:20AM 40.6333 -74.0833 237° Southwest 213 245 10,600  Level New York TRACON
11:21AM 40.6000 -74.1500 237° Southwest 215 247 10,600  Level New York TRACON
11:22AM 40.5833 -74.2167 252° West 219 252 10,600  Level New York TRACON
11:23AM 40.5500 -74.2833 237° Southwest 217 250 10,600  Level New York TRACON
11:24AM 40.5167 -74.3500 237° Southwest 217 250 10,600  Level New York TRACON
11:25AM 40.4833 -74.4167 237° Southwest 218 251 10,600  Level New York TRACON
11:26AM 40.4500 -74.4833 237° Southwest 219 252 10,600  Level New York TRACON
11:27AM 40.4333 -74.5500 252° West 213 245 10,600 -420 Level New York TRACON
11:28AM 40.4000 -74.6167 237° Southwest 223 257 9,900 -840 Descending New York TRACON
11:29AM 40.3667 -74.6833 237° Southwest 210 242 9,100 -780 Descending New York TRACON
11:30AM 40.3500 -74.7500 252° West 207 238 8,400 -1,080 Descending New York TRACON
11:31AM 40.3333 -74.8333 255° West 218 251 7,000 -1,200 Descending New York TRACON
11:32AM 40.3000 -74.9000 237° Southwest 218 251 6,100 -840 Descending New York TRACON
11:33AM 40.2667 -74.9667 237° Southwest 212 244 5,300 -780 Descending New York TRACON
11:35AM 40.2167 -75.1000 244° Southwest 192 221 3,700 -780 Descending Philadelphia TRACON
11:36AM 40.1833 -75.1667 237° Southwest 176 203 3,000 -720 Descending Philadelphia TRACON
11:38AM 40.1466 -75.2456 237° Southwest  Level Estimated
11:45AM 40.1333 -75.2500 237° Southwest  Level FlightAware Approximate
11:46AM 40.1376 -75.2651 237° Southwest  Level Estimated
11:47AM 40.1376 -75.2651 237° Southwest  Level Estimated